Port Columbus International Airport
KCMH : now visible

Aeroporto :











RITROVATECI SU...

 
LOGIN :

Iscrizione | Disclaimer

   EN    FR    IT 

 









Sommario :    VFR   VFR Marginale   IFR   IFR Intensivo   IFR Molto Intensivo
Visibilità : 
Base nubi : 
>= 8 km
>= 3000ft
5 / 8 km
1000 / 3000 ft
1500m / 5 km
500 / 1000 ft
800 / 1500m
200 / 500 ft
< 800m
< 200 ft
Simboli :   Temporali  Nebbia  Neve Forte  Precipitazioni Forti  Vento > 20 kt






- Altitudine del aeroporto : 815 ft
- Codice IATA : CMH


KCMH - Port Columbus International

ULTIMO METAR :
  • 260751Z 24015G20KT 10SM BKN027 OVC036 12/09 A2988 RMK AO2 RAB15E25 SLP118 P0000 T01170089

METARs OBSOLETI :
  • 260715Z 23015KT 10SM -RA BKN020 OVC040 12/09 A2986 RMK AO2 RAB15 P0000 T01170094
  • 260651Z 23010G20KT 10SM FEW023 OVC036 12/09 A2986 RMK AO2 SLP111 T01170094

TAF KCMH
Valido dal 26 a 06 ore il 27 a 06 ore UTC


260531Z 2606/2706 23012KT P6SM BKN022 OVC030
FM260800 24011KT P6SM OVC018
FM261100 24009KT P6SM OVC012
FM261700 24009KT P6SM OVC016
FM270100 23005KT P6SM OVC020
FIR KZID / America del Nord



MetMap, La meteo Aeronautica in un colpo d'occhio ! - Copyright ORBIFLY Dicembre 2007 - Disclaimer

ORBIFLY MET'MAP TEAM :

Programmazione e sviluppo : Alexandra Zaïnal
Concezione : Baudouin d'Aumeries
Aiuto per la programmazione : Marc-Olivier Méhu
Supporto tecnico e logistico : Manuel Goepfert
Aiuto per la traduzione : Arnaldo La Scala

Contatto : metmap@orbifly.com




FONTI E CREDITI :

   NOAA       Earth
Advisory